Time;durP1;ratioP1;P1;durP2;ratioP2;P2;SDS_P1;SDS_P2;PMS_P1;PMS_P2;Temp;Humidity;BMP_temperature;BMP_pressure;BME280_temperature;BME280_humidity;BME280_pressure;Samples;Min_cycle;Max_cycle;Signal;HPM_P1;HPM_P2
2022/08/13 00:01:37;;;;;;;6.53;2.17;;;;;;;20.94;47.87;101393.06;5006445;28;20033;-76
2022/08/13 00:04:12;;;;;;;6.82;1.98;;;;;;;20.89;48.10;101390.25;5021338;28;20075;-76
2022/08/13 00:09:10;;;;;;;8.00;1.90;;;;;;;20.81;48.42;101391.28;5036012;28;20059;-75
2022/08/13 00:14:24;;;;;;;4.68;1.50;;;;;;;20.72;48.61;101384.63;5036255;28;20288;-75
2022/08/13 00:16:54;;;;;;;6.07;2.05;;;;;;;20.69;48.60;101379.81;5020310;28;20043;-76
2022/08/13 00:19:20;;;;;;;2.85;1.75;;;;;;;20.69;48.20;101385.06;5039155;28;20425;-76
2022/08/13 00:21:47;;;;;;;3.50;1.67;;;;;;;20.69;48.14;101383.25;5036112;28;20033;-76
2022/08/13 00:24:13;;;;;;;6.63;1.90;;;;;;;20.68;48.03;101388.72;5022766;28;20087;-76
2022/08/13 00:26:38;;;;;;;2.88;1.75;;;;;;;20.66;48.04;101390.75;5041872;28;20090;-75
2022/08/13 00:29:04;;;;;;;4.15;1.60;;;;;;;20.65;47.75;101389.16;5047046;28;20045;-76
2022/08/13 00:31:31;;;;;;;4.20;1.48;;;;;;;20.63;47.75;101391.19;5027335;28;20072;-76
2022/08/13 00:33:58;;;;;;;5.53;1.83;;;;;;;20.59;47.91;101394.19;5009464;28;20041;-75
2022/08/13 00:36:24;;;;;;;5.88;2.63;;;;;;;20.57;48.15;101392.81;5043128;28;20099;-76
2022/08/13 00:38:53;;;;;;;2.35;1.30;;;;;;;20.55;48.07;101386.91;5037943;28;20428;-76
2022/08/13 00:41:38;;;;;;;2.25;1.27;;;;;;;20.53;48.22;101378.41;5024483;28;20048;-76
2022/08/13 00:44:15;;;;;;;3.20;1.38;;;;;;;20.50;48.52;101384.91;5010937;28;21706;-76
2022/08/13 00:46:42;;;;;;;2.03;1.50;;;;;;;20.47;48.81;101380.03;5027258;28;20036;-75
2022/08/13 00:49:09;;;;;;;2.75;1.50;;;;;;;20.46;48.90;101375.00;5025563;28;20512;-76
2022/08/13 00:51:37;;;;;;;6.15;1.58;;;;;;;20.37;49.24;101375.22;5038663;28;20489;-76
2022/08/13 00:54:05;;;;;;;2.47;1.58;;;;;;;20.36;49.20;101378.06;5027066;28;20400;-76
2022/08/13 00:56:33;;;;;;;3.13;1.77;;;;;;;20.32;49.41;101377.66;5025884;28;20398;-76
2022/08/13 00:59:03;;;;;;;2.42;1.35;;;;;;;20.28;49.46;101378.28;5023958;28;20044;-75
2022/08/13 01:01:29;;;;;;;5.95;1.75;;;;;;;20.22;49.79;101380.72;5025295;28;20033;-75
2022/08/13 01:03:55;;;;;;;2.38;1.60;;;;;;;20.17;50.15;101377.09;5026306;28;20032;-75
2022/08/13 01:06:22;;;;;;;4.30;1.30;;;;;;;20.13;50.13;101375.88;5044706;28;20044;-76
2022/08/13 01:08:52;;;;;;;5.28;1.73;;;;;;;20.06;50.63;101380.34;5041500;28;20043;-75
2022/08/13 01:11:19;;;;;;;3.20;1.50;;;;;;;19.98;50.88;101381.38;5025057;28;20096;-76
2022/08/13 01:13:46;;;;;;;3.80;1.63;;;;;;;19.92;51.15;101379.56;5026349;28;20568;-75
2022/08/13 01:16:14;;;;;;;2.35;1.42;;;;;;;19.89;51.35;101382.59;5028456;28;20162;-75
2022/08/13 01:18:45;;;;;;;2.63;1.45;;;;;;;19.86;51.41;101377.75;5044106;28;20039;-75
2022/08/13 01:21:17;;;;;;;2.20;1.20;;;;;;;19.82;51.48;101374.72;5042346;28;20798;-75
2022/08/13 01:23:46;;;;;;;6.05;1.50;;;;;;;19.79;51.53;101373.28;5044391;28;20052;-75
2022/08/13 01:26:18;;;;;;;5.22;1.42;;;;;;;19.76;51.56;101378.13;5041258;28;20124;-75
2022/08/13 01:28:45;;;;;;;4.57;1.95;;;;;;;19.73;51.87;101381.19;5034407;28;20032;-75
2022/08/13 01:31:14;;;;;;;1.95;1.33;;;;;;;19.70;51.76;101378.91;5041796;28;20480;-74
2022/08/13 01:33:43;;;;;;;4.13;1.50;;;;;;;19.63;52.04;101385.00;5031134;28;20991;-76
2022/08/13 01:36:11;;;;;;;3.58;1.35;;;;;;;19.58;52.29;101383.97;5031919;28;20435;-75
2022/08/13 01:38:38;;;;;;;2.67;1.42;;;;;;;19.57;51.82;101387.59;5014619;28;20047;-75
2022/08/13 01:41:08;;;;;;;4.50;1.85;;;;;;;19.47;52.20;101382.75;5027041;28;20036;-76
2022/08/13 01:43:36;;;;;;;1.85;1.42;;;;;;;19.31;52.99;101383.13;5022135;28;20037;-75
2022/08/13 01:46:02;;;;;;;4.38;1.50;;;;;;;19.08;53.93;101392.19;5027172;28;20036;-75
2022/08/13 01:51:21;;;;;;;6.43;1.55;;;;;;;18.78;54.87;101384.59;5036754;28;20132;-76
2022/08/13 01:53:49;;;;;;;3.10;2.25;;;;;;;18.68;55.28;101378.88;5038285;28;20040;-76
2022/08/13 01:56:19;;;;;;;10.15;1.85;;;;;;;18.61;55.46;101378.84;5024386;28;20083;-76
2022/08/13 01:58:47;;;;;;;4.72;1.92;;;;;;;18.67;55.27;101375.44;5044162;28;20029;-76
2022/08/13 02:01:13;;;;;;;2.58;1.40;;;;;;;18.70;55.36;101378.69;5039634;28;20383;-76
2022/08/13 02:03:46;;;;;;;3.65;2.08;;;;;;;18.72;55.14;101387.97;5021526;28;20496;-75
2022/08/13 02:06:12;;;;;;;6.10;1.88;;;;;;;18.71;55.32;101388.19;5041554;28;20029;-75
2022/08/13 02:08:40;;;;;;;4.63;1.90;;;;;;;18.72;55.11;101387.16;5015195;28;20036;-76
2022/08/13 02:11:06;;;;;;;3.30;1.75;;;;;;;18.75;55.03;101392.03;5031377;28;20040;-76
2022/08/13 02:13:32;;;;;;;3.97;1.65;;;;;;;18.74;54.77;101391.25;5043283;28;20040;-75
2022/08/13 02:15:57;;;;;;;3.33;1.30;;;;;;;18.73;54.88;101386.97;5030197;28;20040;-75
2022/08/13 02:18:25;;;;;;;2.75;1.42;;;;;;;18.56;55.57;101389.13;5031395;28;20026;-75
2022/08/13 02:20:57;;;;;;;4.82;1.63;;;;;;;18.38;56.26;101386.19;5044298;28;20108;-75
2022/08/13 02:23:28;;;;;;;4.18;1.63;;;;;;;18.31;56.54;101393.22;5045827;28;20029;-75
2022/08/13 02:25:57;;;;;;;2.33;1.48;;;;;;;18.28;56.58;101391.78;5032186;28;20052;-76
2022/08/13 02:28:22;;;;;;;4.50;2.13;;;;;;;18.26;57.06;101393.81;5022606;28;20029;-75
2022/08/13 02:30:49;;;;;;;2.60;1.63;;;;;;;18.21;56.93;101388.31;5045865;28;20040;-75
2022/08/13 02:33:16;;;;;;;2.08;1.60;;;;;;;18.21;57.07;101390.94;5043879;28;20112;-75
2022/08/13 02:35:45;;;;;;;6.15;1.60;;;;;;;18.22;56.86;101393.38;5055750;28;20032;-75
2022/08/13 02:38:11;;;;;;;4.15;1.75;;;;;;;18.17;57.11;101400.19;5030291;28;20072;-75
2022/08/13 02:43:29;;;;;;;4.22;1.90;;;;;;;18.12;57.55;101394.69;5048480;28;20037;-75
2022/08/13 02:45:55;;;;;;;2.60;1.60;;;;;;;18.06;57.82;101393.66;5031183;28;20032;-75
2022/08/13 02:48:23;;;;;;;3.20;1.95;;;;;;;18.03;57.94;101394.06;5029448;28;20055;-75
2022/08/13 02:50:50;;;;;;;3.78;1.77;;;;;;;18.00;58.13;101389.97;5013975;28;20032;-76
2022/08/13 02:53:18;;;;;;;5.95;2.25;;;;;;;17.95;58.56;101392.38;5029443;28;20627;-74
2022/08/13 02:55:47;;;;;;;5.95;1.88;;;;;;;17.94;58.92;101393.38;5031425;28;20040;-75
2022/08/13 02:58:13;;;;;;;3.92;2.58;;;;;;;17.88;59.21;101405.44;5044126;28;20128;-76
2022/08/13 03:00:41;;;;;;;7.32;2.65;;;;;;;17.81;59.52;101395.88;5029297;28;20037;-75
2022/08/13 03:03:08;;;;;;;3.17;1.95;;;;;;;17.70;60.00;101403.22;5047136;28;20033;-75
2022/08/13 03:05:34;;;;;;;3.67;2.17;;;;;;;17.54;60.43;101398.25;5044068;28;20027;-75
2022/08/13 03:08:00;;;;;;;7.70;2.20;;;;;;;17.46;61.14;101400.97;5024043;28;20130;-75
2022/08/13 03:10:27;;;;;;;2.75;1.85;;;;;;;17.46;61.20;101399.19;5024302;28;20134;-75
2022/08/13 03:13:07;;;;;;;4.32;2.38;;;;;;;17.41;61.49;101400.75;5047999;28;20111;-75
2022/08/13 03:15:34;;;;;;;2.78;2.00;;;;;;;17.27;61.68;101403.25;5035501;28;20119;-75
2022/08/13 03:18:00;;;;;;;4.53;2.03;;;;;;;17.11;62.03;101411.31;5024369;28;20036;-75
2022/08/13 03:20:27;;;;;;;7.65;2.22;;;;;;;16.99;62.59;101410.16;5022496;28;20055;-75
2022/08/13 03:22:56;;;;;;;5.38;2.30;;;;;;;16.88;63.32;101403.59;5046017;28;20056;-75
2022/08/13 03:25:25;;;;;;;8.02;2.33;;;;;;;16.84;63.54;101408.38;5024470;28;20056;-75
2022/08/13 03:27:52;;;;;;;6.93;2.17;;;;;;;16.86;63.87;101409.00;5041158;28;20048;-75
2022/08/13 03:30:21;;;;;;;9.57;3.25;;;;;;;16.86;63.82;101406.41;5042021;28;20029;-76
2022/08/13 03:32:48;;;;;;;9.93;2.13;;;;;;;16.89;63.95;101411.25;5041548;28;20048;-75
2022/08/13 03:35:22;;;;;;;3.67;2.30;;;;;;;16.92;64.00;101407.47;5021323;28;20028;-75
2022/08/13 03:37:53;;;;;;;6.25;3.45;;;;;;;16.89;64.05;101411.25;5039769;28;21201;-76
2022/08/13 03:40:21;;;;;;;3.30;2.13;;;;;;;16.85;64.39;101410.00;5022479;28;20557;-75
2022/08/13 03:42:50;;;;;;;4.88;2.10;;;;;;;16.83;64.47;101409.38;5028140;28;20496;-76
2022/08/13 03:45:17;;;;;;;2.92;1.95;;;;;;;16.81;64.57;101407.91;5020421;28;20057;-76
2022/08/13 03:47:43;;;;;;;4.78;2.05;;;;;;;16.74;64.96;101405.19;5039433;28;20027;-76
2022/08/13 03:50:11;;;;;;;5.47;2.40;;;;;;;16.64;65.26;101402.06;5013527;28;20569;-75
2022/08/13 03:52:37;;;;;;;4.80;2.30;;;;;;;16.56;65.51;101402.97;5044522;28;20546;-75
2022/08/13 03:55:12;;;;;;;5.47;3.10;;;;;;;16.48;65.90;101411.72;5046525;28;20028;-75
2022/08/13 03:57:39;;;;;;;9.00;2.65;;;;;;;16.38;66.40;101405.91;5027771;28;20029;-75
2022/08/13 04:00:07;;;;;;;13.93;3.25;;;;;;;16.28;66.79;101411.41;5047979;28;20388;-75
2022/08/13 04:02:41;;;;;;;3.13;2.40;;;;;;;16.25;67.03;101408.34;5035809;28;20117;-75
2022/08/13 04:05:16;;;;;;;5.90;2.53;;;;;;;16.24;67.28;101401.50;5029552;28;20540;-75
2022/08/13 04:07:42;;;;;;;4.35;2.58;;;;;;;16.34;66.52;101404.66;5038234;28;20417;-75
2022/08/13 04:10:08;;;;;;;5.93;2.55;;;;;;;16.45;66.35;101404.22;5025058;28;20025;-75
2022/08/13 04:12:34;;;;;;;5.80;2.35;;;;;;;16.53;66.05;101403.31;5028781;28;20052;-75
2022/08/13 04:15:00;;;;;;;5.15;2.47;;;;;;;16.60;65.87;101406.84;5034924;28;20029;-75
2022/08/13 04:17:25;;;;;;;5.45;2.17;;;;;;;16.63;65.67;101406.47;5040508;28;20029;-75
2022/08/13 04:19:50;;;;;;;5.57;2.30;;;;;;;16.67;65.42;101406.91;5028425;28;20044;-75
2022/08/13 04:22:17;;;;;;;7.10;2.22;;;;;;;16.68;65.16;101411.16;5030754;28;20029;-75
2022/08/13 04:24:44;;;;;;;5.78;2.20;;;;;;;16.69;64.83;101418.03;5029829;28;20025;-75
2022/08/13 04:27:09;;;;;;;3.88;2.03;;;;;;;16.67;64.75;101407.75;5040096;28;20505;-75
2022/08/13 04:29:35;;;;;;;3.45;2.20;;;;;;;16.63;64.94;101416.13;5040710;28;20115;-75
2022/08/13 04:32:00;;;;;;;4.13;2.00;;;;;;;16.54;65.43;101424.06;5016754;28;20033;-75
2022/08/13 04:34:28;;;;;;;6.45;2.20;;;;;;;16.40;66.00;101414.41;5032221;28;20037;-75
2022/08/13 04:36:53;;;;;;;11.88;2.55;;;;;;;16.25;66.63;101411.75;5027978;28;20485;-75
2022/08/13 04:39:19;;;;;;;6.03;2.78;;;;;;;16.12;66.96;101415.00;5009843;28;20032;-75
2022/08/13 04:41:45;;;;;;;9.10;2.50;;;;;;;16.07;67.23;101411.31;5036145;28;20072;-75
2022/08/13 04:44:11;;;;;;;4.45;2.28;;;;;;;16.11;67.15;101415.19;5044020;28;20029;-74
2022/08/13 04:46:37;;;;;;;6.95;2.10;;;;;;;16.18;66.73;101415.28;5023657;28;20033;-75
2022/08/13 04:49:03;;;;;;;9.25;2.50;;;;;;;16.26;66.62;101412.59;5022852;28;20044;-75
2022/08/13 04:51:31;;;;;;;6.28;2.33;;;;;;;16.35;66.31;101422.00;5042952;28;20044;-74
2022/08/13 04:53:56;;;;;;;5.90;2.53;;;;;;;16.43;65.77;101408.81;5013254;28;20048;-75
2022/08/13 04:56:22;;;;;;;3.03;2.10;;;;;;;16.48;65.61;101408.25;5026808;28;20046;-76
2022/08/13 04:58:47;;;;;;;3.58;2.30;;;;;;;16.49;65.46;101412.50;5025344;28;20037;-75
2022/08/13 05:01:13;;;;;;;4.18;2.25;;;;;;;16.44;66.14;101418.28;5040881;28;20422;-75
2022/08/13 05:03:41;;;;;;;5.60;2.45;;;;;;;16.38;66.55;101413.75;5034445;28;20036;-75
2022/08/13 05:06:19;;;;;;;5.82;2.70;;;;;;;16.34;66.67;101415.94;5032377;28;20037;-75
2022/08/13 05:08:46;;;;;;;8.60;2.75;;;;;;;16.34;66.99;101417.72;5043068;28;20481;-75
2022/08/13 05:11:12;;;;;;;8.43;3.30;;;;;;;16.34;67.15;101423.78;5029773;28;20115;-74
2022/08/13 05:13:39;;;;;;;5.15;2.33;;;;;;;16.35;67.33;101422.00;5042153;28;20969;-75
2022/08/13 05:16:09;;;;;;;6.03;2.85;;;;;;;16.37;67.32;101424.41;5046676;28;20036;-75
2022/08/13 05:18:37;;;;;;;7.78;3.17;;;;;;;16.44;66.99;101425.31;5031204;28;20037;-75
2022/08/13 05:21:05;;;;;;;4.28;2.40;;;;;;;16.50;66.95;101425.44;5023651;28;20052;-75
2022/08/13 05:23:34;;;;;;;6.80;2.50;;;;;;;16.57;66.54;101420.28;5040960;28;20044;-75
2022/08/13 05:25:59;;;;;;;4.55;2.35;;;;;;;16.65;65.91;101417.59;5040939;28;20032;-75
2022/08/13 05:28:25;;;;;;;6.05;2.78;;;;;;;16.72;65.28;101423.69;5026098;28;20040;-75
2022/08/13 05:30:51;;;;;;;5.00;2.25;;;;;;;16.78;65.64;101427.38;5043023;28;20051;-75
2022/08/13 05:33:19;;;;;;;3.88;2.47;;;;;;;16.84;65.55;101429.34;5015000;28;20513;-75
2022/08/13 05:35:47;;;;;;;6.43;2.72;;;;;;;16.90;65.19;101436.47;5030410;28;20405;-75
2022/08/13 05:38:14;;;;;;;6.07;2.70;;;;;;;16.96;65.11;101436.72;5025363;28;20038;-75
2022/08/13 05:40:41;;;;;;;5.10;2.40;;;;;;;17.01;64.95;101434.34;5026286;28;20033;-75
2022/08/13 05:43:16;;;;;;;4.25;2.33;;;;;;;17.07;64.86;101431.81;5044895;28;20455;-75
2022/08/13 05:45:42;;;;;;;10.95;3.35;;;;;;;17.11;64.21;101432.28;5013348;28;20457;-75
2022/08/13 05:48:09;;;;;;;4.70;2.28;;;;;;;17.16;63.70;101429.94;5027830;28;20057;-75
2022/08/13 05:50:35;;;;;;;3.97;2.63;;;;;;;17.21;63.85;101429.34;5031440;28;20546;-75
2022/08/13 05:53:09;;;;;;;7.75;2.45;;;;;;;17.25;63.84;101436.69;5031153;28;20032;-75
2022/08/13 05:55:40;;;;;;;6.53;2.22;;;;;;;17.31;63.62;101427.28;5009060;28;20048;-76
2022/08/13 05:58:09;;;;;;;6.30;2.70;;;;;;;17.38;63.71;101427.31;5031509;28;20029;-75
2022/08/13 06:03:25;;;;;;;5.65;2.22;;;;;;;17.87;61.34;101434.47;5042368;28;20033;-75
2022/08/13 06:06:03;;;;;;;7.10;2.42;;;;;;;18.39;59.23;101424.59;5024022;28;20026;-75
2022/08/13 06:08:34;;;;;;;4.20;2.00;;;;;;;18.91;57.46;101425.06;5038171;28;20511;-75
2022/08/13 06:11:02;;;;;;;4.78;2.22;;;;;;;19.43;55.81;101423.59;5029831;28;20037;-75
2022/08/13 06:13:28;;;;;;;4.32;1.90;;;;;;;19.87;55.01;101430.16;5041982;28;20041;-75
2022/08/13 06:16:01;;;;;;;3.50;2.03;;;;;;;20.34;51.86;101430.94;5022179;28;20035;-75
2022/08/13 06:18:29;;;;;;;2.92;1.95;;;;;;;20.69;51.52;101437.78;5041398;28;20041;-73
2022/08/13 06:20:56;;;;;;;5.05;2.05;;;;;;;20.98;51.00;101424.09;5023303;28;20040;-74
2022/08/13 06:23:24;;;;;;;4.60;2.20;;;;;;;21.29;50.26;101430.41;5017033;28;20029;-74
2022/08/13 06:25:53;;;;;;;5.32;3.00;;;;;;;21.55;49.31;101421.53;5032299;28;20032;-74
2022/08/13 06:28:31;;;;;;;3.58;1.98;;;;;;;21.74;49.11;101421.63;5030022;28;20482;-74
2022/08/13 06:31:00;;;;;;;7.57;2.00;;;;;;;21.94;48.67;101422.25;5027420;28;20040;-74
2022/08/13 06:33:30;;;;;;;3.42;2.05;;;;;;;22.12;48.53;101423.31;5028841;28;20021;-74
2022/08/13 06:36:01;;;;;;;10.82;2.42;;;;;;;22.27;48.18;101426.44;5043703;28;20176;-74
2022/08/13 06:38:48;;;;;;;2.60;1.95;;;;;;;22.17;48.00;101429.56;5031532;28;20064;-74
2022/08/13 06:41:15;;;;;;;11.07;4.05;;;;;;;21.90;47.76;101433.44;5026140;28;20025;-74
2022/08/13 06:43:46;;;;;;;11.20;5.05;;;;;;;21.69;48.48;101435.44;5043162;28;20035;-74
2022/08/13 06:46:12;;;;;;;5.40;2.30;;;;;;;21.65;49.74;101430.81;5031352;28;20171;-74
2022/08/13 06:48:42;;;;;;;6.88;2.42;;;;;;;21.50;50.24;101433.75;5051017;28;20504;-73
2022/08/13 06:51:11;;;;;;;5.43;2.45;;;;;;;21.45;50.42;101434.38;5029119;28;20021;-73
2022/08/13 06:53:39;;;;;;;3.92;1.65;;;;;;;21.49;49.34;101426.84;5030156;28;20299;-74
2022/08/13 06:56:07;;;;;;;4.72;1.85;;;;;;;21.65;49.10;101420.25;5027736;28;20182;-74
2022/08/13 06:58:34;;;;;;;5.18;1.98;;;;;;;21.80;48.02;101428.66;5049665;28;20064;-75
2022/08/13 07:01:00;;;;;;;5.45;2.10;;;;;;;21.93;47.91;101427.75;5021555;28;20058;-74
2022/08/13 07:03:29;;;;;;;3.65;1.70;;;;;;;22.25;45.27;101438.22;5044842;28;20037;-73
2022/08/13 07:05:58;;;;;;;6.65;2.20;;;;;;;22.37;45.54;101433.06;5028696;28;20083;-73
2022/08/13 07:08:26;;;;;;;2.35;1.80;;;;;;;22.66;44.77;101434.97;5020830;28;20394;-74
2022/08/13 07:11:21;;;;;;;5.95;2.58;;;;;;;23.26;43.48;101436.88;5019250;28;20368;-74
2022/08/13 07:13:40;;;;;;;5.13;1.80;;;;;;;24.16;42.42;101428.97;5046095;28;20048;-74
2022/08/13 07:16:08;;;;;;;5.00;1.70;;;;;;;24.82;39.88;101424.25;5027799;28;20033;-75
2022/08/13 07:18:34;;;;;;;2.08;1.52;;;;;;;25.66;39.17;101426.25;5028495;28;20032;-74
2022/08/13 07:21:02;;;;;;;2.72;1.50;;;;;;;26.36;38.22;101418.78;5040124;28;20378;-74
2022/08/13 07:23:27;;;;;;;2.53;1.65;;;;;;;26.60;36.42;101417.50;5041885;28;20021;-76
2022/08/13 07:25:57;;;;;;;2.47;1.58;;;;;;;26.87;35.86;101414.06;5029156;28;20135;-74
2022/08/13 07:28:25;;;;;;;7.40;1.55;;;;;;;27.00;36.45;101415.53;5046925;28;20410;-74
2022/08/13 07:30:52;;;;;;;4.68;1.60;;;;;;;27.28;35.10;101416.34;5030543;28;20024;-74
2022/08/13 07:33:19;;;;;;;6.00;2.05;;;;;;;27.41;34.38;101412.44;5040583;28;20032;-75
2022/08/13 07:35:44;;;;;;;3.20;1.98;;;;;;;27.85;33.40;101413.03;5026291;28;20397;-74
2022/08/13 07:38:10;;;;;;;4.97;1.50;;;;;;;28.42;33.08;101411.44;5041093;28;20033;-74
2022/08/13 07:40:36;;;;;;;7.28;1.45;;;;;;;27.98;33.02;101409.13;5041802;28;20036;-73
2022/08/13 07:43:04;;;;;;;4.28;1.50;;;;;;;27.95;33.28;101418.44;5006976;28;20724;-75
2022/08/13 07:45:29;;;;;;;7.53;1.60;;;;;;;28.01;33.62;101413.13;5044474;28;20020;-73
2022/08/13 07:47:56;;;;;;;8.57;1.58;;;;;;;28.14;33.27;101416.16;4999688;28;20037;-74
2022/08/13 07:50:24;;;;;;;7.20;1.40;;;;;;;28.38;33.11;101423.72;5020428;28;20116;-76
2022/08/13 07:52:58;;;;;;;4.82;1.38;;;;;;;28.76;32.17;101412.91;5029297;28;20032;-75
2022/08/13 07:55:26;;;;;;;1.58;1.38;;;;;;;29.27;31.61;101416.50;5029053;28;20029;-75
2022/08/13 07:57:52;;;;;;;6.72;1.42;;;;;;;29.71;31.38;101409.78;5024502;28;20033;-75
2022/08/13 08:00:29;;;;;;;2.85;1.33;;;;;;;29.86;31.28;101417.00;5024777;28;20032;-75
2022/08/13 08:02:56;;;;;;;5.38;1.63;;;;;;;30.35;30.16;101416.31;5018188;28;20086;-73
2022/08/13 08:05:24;;;;;;;1.52;1.20;;;;;;;30.59;29.60;101419.16;5022717;28;20123;-74
2022/08/13 08:07:51;;;;;;;1.73;1.20;;;;;;;30.56;29.21;101413.53;5033075;28;20339;-75
2022/08/13 08:10:18;;;;;;;2.00;1.40;;;;;;;30.71;29.03;101420.69;5020571;28;20029;-75
2022/08/13 08:12:44;;;;;;;2.25;1.02;;;;;;;30.21;29.96;101415.28;5020550;28;20038;-74
2022/08/13 08:15:11;;;;;;;2.10;1.40;;;;;;;30.59;29.41;101415.66;5040027;28;20102;-75
2022/08/13 08:17:37;;;;;;;1.65;1.10;;;;;;;31.22;29.35;101410.44;5006031;28;20039;-74
2022/08/13 08:20:04;;;;;;;4.03;1.20;;;;;;;31.27;28.41;101408.78;5015372;28;20310;-74
2022/08/13 08:22:30;;;;;;;5.93;1.20;;;;;;;31.60;28.25;101407.19;5018069;28;20021;-75
2022/08/13 08:24:57;;;;;;;2.78;0.90;;;;;;;31.75;28.12;101403.53;5030694;28;20029;-74
2022/08/13 08:27:24;;;;;;;3.55;1.17;;;;;;;31.88;27.88;101399.38;5041004;28;20071;-76
2022/08/13 08:29:49;;;;;;;4.35;1.10;;;;;;;32.37;27.36;101404.44;5031540;28;20021;-75
2022/08/13 08:32:16;;;;;;;3.78;1.30;;;;;;;32.42;26.72;101406.25;5042672;28;20472;-77
2022/08/13 08:34:45;;;;;;;2.63;0.80;;;;;;;32.71;27.28;101397.28;5023233;28;20041;-75
2022/08/13 08:42:54;;;;;;;3.38;1.13;;;;;;;32.68;26.36;101409.41;5040864;28;20029;-75
2022/08/13 08:45:22;;;;;;;2.67;1.40;;;;;;;32.50;27.52;101407.50;5027159;28;20102;-76
2022/08/13 08:47:48;;;;;;;4.68;1.50;;;;;;;32.74;26.33;101402.09;5021499;28;20037;-77
2022/08/13 08:50:16;;;;;;;3.42;1.20;;;;;;;32.56;26.47;101407.13;5045647;28;20072;-75
2022/08/13 08:55:35;;;;;;;3.03;1.00;;;;;;;33.15;27.21;101404.13;5021794;28;20021;-76
2022/08/13 08:58:06;;;;;;;4.15;1.00;;;;;;;33.45;25.92;101405.50;5042808;28;20120;-76
2022/08/13 09:00:36;;;;;;;2.08;0.88;;;;;;;33.47;25.58;101399.81;5029802;28;20037;-75
2022/08/13 09:03:03;;;;;;;1.25;0.82;;;;;;;33.47;25.57;101400.63;5015769;28;20041;-75
2022/08/13 09:05:28;;;;;;;3.70;1.08;;;;;;;33.45;25.83;101399.34;5049389;28;20648;-75
2022/08/13 09:07:54;;;;;;;1.05;0.88;;;;;;;33.64;25.28;101391.22;5013825;28;20029;-75
2022/08/13 09:10:22;;;;;;;1.00;0.90;;;;;;;33.64;25.86;101394.69;5030663;28;20029;-75
2022/08/13 09:12:50;;;;;;;1.67;1.05;;;;;;;33.79;24.36;101390.91;5027120;28;20028;-75
2022/08/13 09:15:18;;;;;;;0.98;0.80;;;;;;;33.67;24.92;101385.25;5028813;28;20044;-75
2022/08/13 09:17:44;;;;;;;8.63;1.23;;;;;;;33.48;24.49;101388.00;5033479;28;20086;-75
2022/08/13 09:20:15;;;;;;;1.20;0.90;;;;;;;33.81;24.55;101390.63;5015063;28;20474;-76
2022/08/13 09:22:43;;;;;;;2.13;0.90;;;;;;;33.67;24.79;101386.03;5032905;28;20884;-76
2022/08/13 09:25:10;;;;;;;3.88;1.00;;;;;;;33.78;24.61;101383.16;5030229;28;20037;-76
2022/08/13 09:27:35;;;;;;;10.48;1.30;;;;;;;33.74;24.18;101374.91;5048559;28;20043;-77
2022/08/13 09:30:03;;;;;;;2.60;0.98;;;;;;;33.85;24.40;101381.66;5043039;28;20037;-76
2022/08/13 09:32:32;;;;;;;1.65;1.10;;;;;;;34.01;23.81;101379.44;5029954;28;20036;-76
2022/08/13 09:34:58;;;;;;;3.95;1.25;;;;;;;33.85;23.98;101383.53;5013369;28;20521;-76
2022/08/13 09:37:25;;;;;;;4.78;1.08;;;;;;;34.06;23.56;101375.88;5032307;28;20641;-76
2022/08/13 09:39:53;;;;;;;1.13;0.80;;;;;;;33.95;23.78;101369.91;5029794;28;20029;-77
2022/08/13 09:42:33;;;;;;;1.00;0.80;;;;;;;34.06;24.07;101370.50;5029327;28;20064;-77
2022/08/13 09:45:00;;;;;;;2.28;0.93;;;;;;;34.26;24.22;101370.06;5031972;28;20029;-76
2022/08/13 09:47:26;;;;;;;2.00;0.93;;;;;;;34.27;23.30;101368.19;5027916;28;20537;-76
2022/08/13 09:49:53;;;;;;;1.73;1.00;;;;;;;33.93;23.36;101374.78;5042065;28;20068;-77
2022/08/13 09:52:20;;;;;;;12.23;1.30;;;;;;;34.01;24.00;101370.59;5038128;28;20363;-76
2022/08/13 09:54:47;;;;;;;1.80;1.10;;;;;;;33.76;24.32;101364.66;5037259;28;20065;-76
2022/08/13 09:57:13;;;;;;;2.97;1.30;;;;;;;33.64;24.46;101365.13;5013337;28;20504;-75
2022/08/13 09:59:38;;;;;;;4.05;1.10;;;;;;;33.82;24.30;101368.81;5043901;28;20037;-77
2022/08/13 10:02:08;;;;;;;3.20;0.90;;;;;;;33.88;24.66;101366.81;5021722;28;20032;-75
2022/08/13 10:04:33;;;;;;;7.03;1.00;;;;;;;33.96;24.15;101366.09;5023499;28;20029;-77
2022/08/13 10:06:59;;;;;;;1.83;1.27;;;;;;;33.74;23.35;101361.47;5005332;28;20056;-77
2022/08/13 10:09:28;;;;;;;1.35;0.90;;;;;;;34.01;24.03;101362.53;5029329;28;20516;-76
2022/08/13 10:11:54;;;;;;;1.65;0.82;;;;;;;34.05;24.06;101353.53;5025196;28;20033;-75
2022/08/13 10:14:19;;;;;;;4.15;1.30;;;;;;;33.82;24.16;101358.06;5045908;28;20036;-74
2022/08/13 10:16:45;;;;;;;2.78;0.90;;;;;;;33.54;24.39;101362.63;5023655;28;20387;-77
2022/08/13 10:19:11;;;;;;;2.42;1.05;;;;;;;33.63;23.65;101344.69;5042473;28;20439;-77
2022/08/13 10:21:37;;;;;;;1.30;0.90;;;;;;;33.75;23.64;101347.69;5021493;28;20480;-77
2022/08/13 10:24:04;;;;;;;4.13;0.95;;;;;;;33.64;23.88;101345.53;5020061;28;20044;-77
2022/08/13 10:26:29;;;;;;;1.63;0.90;;;;;;;33.48;23.65;101339.63;5025448;28;20530;-75
2022/08/13 10:28:55;;;;;;;4.80;1.10;;;;;;;33.66;23.94;101337.94;5022444;28;20033;-76
2022/08/13 10:31:27;;;;;;;2.80;1.25;;;;;;;33.38;23.99;101326.38;5011342;28;20037;-75
2022/08/13 10:33:54;;;;;;;3.97;1.30;;;;;;;33.32;23.69;101333.72;5009802;28;20094;-74
2022/08/13 10:36:21;;;;;;;4.88;1.00;;;;;;;33.31;24.02;101340.22;5027823;28;20037;-76
2022/08/13 10:38:47;;;;;;;1.40;1.25;;;;;;;33.35;23.88;101342.00;5045750;28;20110;-75
2022/08/13 10:41:12;;;;;;;6.07;0.95;;;;;;;33.30;24.39;101331.34;5041255;28;20374;-77
2022/08/13 10:43:38;;;;;;;2.00;1.20;;;;;;;33.47;23.49;101320.00;5021708;28;20037;-74
2022/08/13 10:46:05;;;;;;;2.10;1.10;;;;;;;33.38;23.22;101321.00;5039819;28;20711;-76
2022/08/13 10:48:31;;;;;;;1.35;0.85;;;;;;;33.57;23.37;101319.03;5025006;28;20025;-76
2022/08/13 10:50:58;;;;;;;0.95;0.75;;;;;;;33.72;23.57;101323.34;5027894;28;20056;-76
2022/08/13 10:56:12;;;;;;;1.20;0.90;;;;;;;33.67;23.34;101318.84;5039117;28;20561;-76
2022/08/13 10:58:42;;;;;;;1.42;0.73;;;;;;;33.76;23.30;101321.63;5023063;28;20088;-75
2022/08/13 11:01:10;;;;;;;2.00;0.82;;;;;;;33.65;22.71;101325.63;5022385;28;20076;-74
2022/08/13 11:03:37;;;;;;;3.00;1.40;;;;;;;33.73;23.18;101319.53;5013334;28;20024;-77
2022/08/13 11:06:04;;;;;;;1.38;1.23;;;;;;;33.70;23.12;101322.81;5025845;28;20052;-76
2022/08/13 11:08:36;;;;;;;3.88;1.00;;;;;;;33.22;23.17;101304.38;5009457;28;20032;-76
2022/08/13 11:11:03;;;;;;;2.05;0.90;;;;;;;33.21;23.04;101313.50;5038473;28;20179;-76
2022/08/13 11:13:31;;;;;;;1.30;1.20;;;;;;;33.53;22.99;101302.69;5023372;28;20041;-77
2022/08/13 11:15:58;;;;;;;1.45;1.00;;;;;;;33.86;23.33;101301.78;5033761;28;20037;-78
2022/08/13 11:18:24;;;;;;;1.10;0.73;;;;;;;33.97;22.19;101305.84;5021809;28;20026;-76
2022/08/13 11:21:07;;;;;;;3.65;1.00;;;;;;;33.88;22.69;101299.59;5044606;28;20037;-76
2022/08/13 11:23:36;;;;;;;1.15;0.95;;;;;;;33.46;23.61;101291.56;5020647;28;20040;-77
2022/08/13 11:26:02;;;;;;;1.98;1.20;;;;;;;33.67;23.54;101299.25;5039094;28;20029;-78
2022/08/13 11:28:28;;;;;;;1.58;1.00;;;;;;;33.69;23.60;101305.09;5009712;28;20021;-74
2022/08/13 11:30:55;;;;;;;2.08;1.00;;;;;;;33.39;23.25;101285.78;5024943;28;20035;-76
2022/08/13 11:33:23;;;;;;;3.47;0.82;;;;;;;33.35;23.61;101290.94;5022456;28;20037;-78
2022/08/13 11:35:49;;;;;;;3.03;1.05;;;;;;;33.38;23.65;101286.06;5009771;28;20033;-78
2022/08/13 11:38:16;;;;;;;2.00;1.00;;;;;;;33.58;23.67;101282.97;5023582;28;20383;-76
2022/08/13 11:41:00;;;;;;;1.20;1.10;;;;;;;33.41;23.86;101282.78;5024729;28;20095;-76
2022/08/13 11:43:27;;;;;;;1.75;0.95;;;;;;;33.51;23.36;101272.66;5004791;28;20061;-76
2022/08/13 11:45:54;;;;;;;2.95;0.95;;;;;;;33.62;23.46;101278.59;5042683;28;20037;-76
2022/08/13 11:48:20;;;;;;;4.00;1.00;;;;;;;33.59;23.15;101267.63;5024742;28;20079;-77
2022/08/13 11:50:46;;;;;;;1.25;1.00;;;;;;;33.14;22.83;101263.69;5008527;28;20021;-78
2022/08/13 11:53:12;;;;;;;4.38;1.10;;;;;;;33.04;24.46;101271.09;5021105;28;20460;-78